sensor_id;sensor_type;location;lat;lon;timestamp;pressure;altitude;pressure_sealevel;temperature;humidity
46199;BME280;31928;52.104;10.030;2024-03-29T00:00:55;98574.94;;;11.81;48.45
46199;BME280;31928;52.104;10.030;2024-03-29T00:03:21;98566.38;;;11.79;48.13
46199;BME280;31928;52.104;10.030;2024-03-29T00:05:46;98574.94;;;11.81;48.45
46199;BME280;31928;52.104;10.030;2024-03-29T00:08:12;98564.47;;;11.79;48.18
46199;BME280;31928;52.104;10.030;2024-03-29T00:10:37;98559.13;;;11.79;48.23
46199;BME280;31928;52.104;10.030;2024-03-29T00:13:04;98558.31;;;11.79;48.20
46199;BME280;31928;52.104;10.030;2024-03-29T00:15:31;98559.94;;;11.80;48.43
46199;BME280;31928;52.104;10.030;2024-03-29T00:17:57;98556.16;;;11.76;48.46
46199;BME280;31928;52.104;10.030;2024-03-29T00:20:22;98565.28;;;11.75;48.28
46199;BME280;31928;52.104;10.030;2024-03-29T00:22:49;98555.34;;;11.75;48.17
46199;BME280;31928;52.104;10.030;2024-03-29T00:25:14;98554.78;;;11.73;48.47
46199;BME280;31928;52.104;10.030;2024-03-29T00:27:40;98558.31;;;11.74;48.37
46199;BME280;31928;52.104;10.030;2024-03-29T00:30:06;98547.84;;;11.72;48.38
46199;BME280;31928;52.104;10.030;2024-03-29T00:32:31;98552.38;;;11.72;48.57
46199;BME280;31928;52.104;10.030;2024-03-29T00:34:57;98554.53;;;11.70;48.41
46199;BME280;31928;52.104;10.030;2024-03-29T00:37:23;98553.97;;;11.68;48.67
46199;BME280;31928;52.104;10.030;2024-03-29T00:39:49;98558.84;;;11.71;48.53
46199;BME280;31928;52.104;10.030;2024-03-29T00:42:15;98560.44;;;11.72;48.22
46199;BME280;31928;52.104;10.030;2024-03-29T00:44:42;98555.06;;;11.72;48.41
46199;BME280;31928;52.104;10.030;2024-03-29T00:47:08;98562.84;;;11.73;48.38
46199;BME280;31928;52.104;10.030;2024-03-29T00:49:34;98556.94;;;11.71;48.45
46199;BME280;31928;52.104;10.030;2024-03-29T00:52:01;98561.53;;;11.71;48.12
46199;BME280;31928;52.104;10.030;2024-03-29T00:54:27;98566.34;;;11.69;48.49
46199;BME280;31928;52.104;10.030;2024-03-29T00:56:52;98560.69;;;11.70;48.60
46199;BME280;31928;52.104;10.030;2024-03-29T00:59:18;98572.25;;;11.71;48.21
46199;BME280;31928;52.104;10.030;2024-03-29T01:01:44;98567.97;;;11.70;48.55
46199;BME280;31928;52.104;10.030;2024-03-29T01:04:10;98573.31;;;11.70;48.25
46199;BME280;31928;52.104;10.030;2024-03-29T01:06:37;98578.97;;;11.68;48.04
46199;BME280;31928;52.104;10.030;2024-03-29T01:09:03;98582.44;;;11.69;48.29
46199;BME280;31928;52.104;10.030;2024-03-29T01:11:31;98567.41;;;11.73;48.25
46199;BME280;31928;52.104;10.030;2024-03-29T01:13:57;98561.75;;;11.69;47.95
46199;BME280;31928;52.104;10.030;2024-03-29T01:16:23;98560.44;;;11.72;48.06
46199;BME280;31928;52.104;10.030;2024-03-29T01:18:48;98580.31;;;11.71;47.75
46199;BME280;31928;52.104;10.030;2024-03-29T01:21:14;98560.44;;;11.72;47.93
46199;BME280;31928;52.104;10.030;2024-03-29T01:23:40;98556.41;;;11.74;48.12
46199;BME280;31928;52.104;10.030;2024-03-29T01:26:06;98557.25;;;11.75;47.96
46199;BME280;31928;52.104;10.030;2024-03-29T01:28:33;98559.91;;;11.75;48.03
46199;BME280;31928;52.104;10.030;2024-03-29T01:30:58;98551.88;;;11.75;47.96
46199;BME280;31928;52.104;10.030;2024-03-29T01:33:25;98547.56;;;11.74;48.27
46199;BME280;31928;52.104;10.030;2024-03-29T01:35:50;98546.75;;;11.73;48.02
46199;BME280;31928;52.104;10.030;2024-03-29T01:38:16;98543.81;;;11.75;48.18
46199;BME280;31928;52.104;10.030;2024-03-29T01:40:42;98535.22;;;11.73;48.27
46199;BME280;31928;52.104;10.030;2024-03-29T01:43:08;98532.00;;;11.71;48.38
46199;BME280;31928;52.104;10.030;2024-03-29T01:45:38;98534.91;;;11.69;48.06
46199;BME280;31928;52.104;10.030;2024-03-29T01:48:08;98542.72;;;11.71;48.08
46199;BME280;31928;52.104;10.030;2024-03-29T01:50:34;98539.47;;;11.64;48.50
46199;BME280;31928;52.104;10.030;2024-03-29T01:53:01;98560.91;;;11.59;48.32
46199;BME280;31928;52.104;10.030;2024-03-29T01:55:27;98566.28;;;11.59;48.17
46199;BME280;31928;52.104;10.030;2024-03-29T01:57:54;98567.91;;;11.60;48.31
46199;BME280;31928;52.104;10.030;2024-03-29T02:00:20;98570.31;;;11.56;48.25
46199;BME280;31928;52.104;10.030;2024-03-29T02:02:46;98575.94;;;11.55;48.11
46199;BME280;31928;52.104;10.030;2024-03-29T02:05:13;98575.94;;;11.55;48.08
46199;BME280;31928;52.104;10.030;2024-03-29T02:07:39;98573.22;;;11.50;48.54
46199;BME280;31928;52.104;10.030;2024-03-29T02:10:05;98583.47;;;11.53;48.19
46199;BME280;31928;52.104;10.030;2024-03-29T02:12:33;98592.56;;;11.52;48.28
46199;BME280;31928;52.104;10.030;2024-03-29T02:14:59;98590.97;;;11.56;47.90
46199;BME280;31928;52.104;10.030;2024-03-29T02:17:27;98600.34;;;11.53;48.41
46199;BME280;31928;52.104;10.030;2024-03-29T02:19:53;98590.41;;;11.54;48.39
46199;BME280;31928;52.104;10.030;2024-03-29T02:22:19;98582.94;;;11.56;48.45
46199;BME280;31928;52.104;10.030;2024-03-29T02:24:47;98593.38;;;11.52;48.20
46199;BME280;31928;52.104;10.030;2024-03-29T02:27:13;98570.56;;;11.55;48.18
46199;BME280;31928;52.104;10.030;2024-03-29T02:29:39;98568.19;;;11.58;47.71
46199;BME280;31928;52.104;10.030;2024-03-29T02:32:05;98564.66;;;11.58;47.89
46199;BME280;31928;52.104;10.030;2024-03-29T02:34:30;98567.34;;;11.58;47.79
46199;BME280;31928;52.104;10.030;2024-03-29T02:36:56;98560.91;;;11.59;47.85
46199;BME280;31928;52.104;10.030;2024-03-29T02:39:24;98573.81;;;11.57;47.83
46199;BME280;31928;52.104;10.030;2024-03-29T02:41:50;98591.78;;;11.61;47.51
46199;BME280;31928;52.104;10.030;2024-03-29T02:44:16;98580.25;;;11.61;47.35
46199;BME280;31928;52.104;10.030;2024-03-29T02:46:42;98584.28;;;11.58;47.67
46199;BME280;31928;52.104;10.030;2024-03-29T02:49:08;98573.84;;;11.62;47.63
46199;BME280;31928;52.104;10.030;2024-03-29T02:51:35;98558.50;;;11.57;47.66
46199;BME280;31928;52.104;10.030;2024-03-29T02:54:01;98564.97;;;11.61;47.06
46199;BME280;31928;52.104;10.030;2024-03-29T02:56:26;98546.44;;;11.60;47.29
46199;BME280;31928;52.104;10.030;2024-03-29T02:58:52;98535.69;;;11.60;47.24
46199;BME280;31928;52.104;10.030;2024-03-29T03:01:18;98517.97;;;11.59;47.21
46199;BME280;31928;52.104;10.030;2024-03-29T03:03:44;98512.91;;;11.62;47.49
46199;BME280;31928;52.104;10.030;2024-03-29T03:06:10;98516.38;;;11.63;46.97
46199;BME280;31928;52.104;10.030;2024-03-29T03:08:35;98512.91;;;11.62;47.27
46199;BME280;31928;52.104;10.030;2024-03-29T03:11:19;98510.50;;;11.61;47.06
46199;BME280;31928;52.104;10.030;2024-03-29T03:13:45;98515.03;;;11.60;47.12
46199;BME280;31928;52.104;10.030;2024-03-29T03:16:11;98506.50;;;11.68;47.00
46199;BME280;31928;52.104;10.030;2024-03-29T03:18:36;98517.47;;;11.67;46.89
46199;BME280;31928;52.104;10.030;2024-03-29T03:21:02;98539.50;;;11.69;46.83
46199;BME280;31928;52.104;10.030;2024-03-29T03:23:28;98538.16;;;11.71;46.91
46199;BME280;31928;52.104;10.030;2024-03-29T03:25:58;98538.44;;;11.75;46.97
46199;BME280;31928;52.104;10.030;2024-03-29T03:28:24;98532.00;;;11.71;46.77
46199;BME280;31928;52.104;10.030;2024-03-29T03:30:50;98552.38;;;11.72;46.95
46199;BME280;31928;52.104;10.030;2024-03-29T03:33:16;98538.69;;;11.73;46.82
46199;BME280;31928;52.104;10.030;2024-03-29T03:35:42;98536.28;;;11.72;47.07
46199;BME280;31928;52.104;10.030;2024-03-29T03:38:08;98566.34;;;11.74;46.74
46199;BME280;31928;52.104;10.030;2024-03-29T03:40:34;98529.84;;;11.73;47.12
46199;BME280;31928;52.104;10.030;2024-03-29T03:43:04;98513.72;;;11.73;46.59
46199;BME280;31928;52.104;10.030;2024-03-29T03:45:37;98513.19;;;11.76;46.97
46199;BME280;31928;52.104;10.030;2024-03-29T03:48:03;98530.38;;;11.70;46.94
46199;BME280;31928;52.104;10.030;2024-03-29T03:50:29;98540.03;;;11.66;47.24
46199;BME280;31928;52.104;10.030;2024-03-29T03:52:56;98532.50;;;11.68;46.83
46199;BME280;31928;52.104;10.030;2024-03-29T03:55:21;98528.19;;;11.67;47.20
46199;BME280;31928;52.104;10.030;2024-03-29T03:57:47;98535.47;;;11.66;47.11
46199;BME280;31928;52.104;10.030;2024-03-29T04:00:13;98536.25;;;11.67;47.03
46199;BME280;31928;52.104;10.030;2024-03-29T04:02:38;98537.63;;;11.64;47.01
46199;BME280;31928;52.104;10.030;2024-03-29T04:05:04;98550.22;;;11.69;47.17
46199;BME280;31928;52.104;10.030;2024-03-29T04:07:30;98525.50;;;11.67;46.98
46199;BME280;31928;52.104;10.030;2024-03-29T04:09:56;98522.31;;;11.65;47.18
46199;BME280;31928;52.104;10.030;2024-03-29T04:12:22;98528.47;;;11.65;46.94
46199;BME280;31928;52.104;10.030;2024-03-29T04:14:47;98527.13;;;11.68;47.04
46199;BME280;31928;52.104;10.030;2024-03-29T04:17:13;98520.16;;;11.67;47.06
46199;BME280;31928;52.104;10.030;2024-03-29T04:19:38;98497.09;;;11.66;46.83
46199;BME280;31928;52.104;10.030;2024-03-29T04:22:04;98507.81;;;11.66;47.26
46199;BME280;31928;52.104;10.030;2024-03-29T04:24:29;98511.84;;;11.68;46.83
46199;BME280;31928;52.104;10.030;2024-03-29T04:26:55;98523.94;;;11.71;46.91
46199;BME280;31928;52.104;10.030;2024-03-29T04:29:20;98522.06;;;11.71;46.93
46199;BME280;31928;52.104;10.030;2024-03-29T04:31:46;98536.53;;;11.70;46.96
46199;BME280;31928;52.104;10.030;2024-03-29T04:34:11;98532.00;;;11.71;46.50
46199;BME280;31928;52.104;10.030;2024-03-29T04:36:37;98546.75;;;11.73;46.67
46199;BME280;31928;52.104;10.030;2024-03-29T04:39:04;98561.25;;;11.72;46.76
46199;BME280;31928;52.104;10.030;2024-03-29T04:41:29;98569.56;;;11.76;46.54
46199;BME280;31928;52.104;10.030;2024-03-29T04:44:00;98545.41;;;11.76;46.34
46199;BME280;31928;52.104;10.030;2024-03-29T04:46:29;98545.41;;;11.76;46.67
46199;BME280;31928;52.104;10.030;2024-03-29T04:48:55;98564.19;;;11.76;46.52
46199;BME280;31928;52.104;10.030;2024-03-29T04:51:20;98553.47;;;11.81;46.48
46199;BME280;31928;52.104;10.030;2024-03-29T04:53:46;98562.88;;;11.83;46.38
46199;BME280;31928;52.104;10.030;2024-03-29T04:56:12;98585.19;;;11.84;46.36
46199;BME280;31928;52.104;10.030;2024-03-29T04:58:37;98586.78;;;11.85;46.25
46199;BME280;31928;52.104;10.030;2024-03-29T05:01:03;98599.13;;;11.86;46.06
46199;BME280;31928;52.104;10.030;2024-03-29T05:03:29;98607.75;;;11.88;46.13
46199;BME280;31928;52.104;10.030;2024-03-29T05:05:56;98616.06;;;11.86;46.08
46199;BME280;31928;52.104;10.030;2024-03-29T05:08:22;98610.97;;;11.90;46.35
46199;BME280;31928;52.104;10.030;2024-03-29T05:10:51;98624.41;;;11.95;46.41
46199;BME280;31928;52.104;10.030;2024-03-29T05:13:17;98635.94;;;11.95;46.51
46199;BME280;31928;52.104;10.030;2024-03-29T05:15:46;98670.06;;;11.99;46.39
46199;BME280;31928;52.104;10.030;2024-03-29T05:18:12;98686.75;;;12.01;46.70
46199;BME280;31928;52.104;10.030;2024-03-29T05:20:38;98685.69;;;12.07;46.74
46199;BME280;31928;52.104;10.030;2024-03-29T05:23:07;98674.66;;;12.09;46.89
46199;BME280;31928;52.104;10.030;2024-03-29T05:25:32;98671.22;;;12.13;47.33
46199;BME280;31928;52.104;10.030;2024-03-29T05:27:58;98669.34;;;12.19;47.70
46199;BME280;31928;52.104;10.030;2024-03-29T05:30:23;98677.97;;;12.21;48.14
46199;BME280;31928;52.104;10.030;2024-03-29T05:32:50;98666.38;;;12.20;48.35
46199;BME280;31928;52.104;10.030;2024-03-29T05:35:15;98664.25;;;12.22;48.90
46199;BME280;31928;52.104;10.030;2024-03-29T05:37:41;98660.75;;;12.22;48.76
46199;BME280;31928;52.104;10.030;2024-03-29T05:40:08;98680.38;;;12.22;48.82
46199;BME280;31928;52.104;10.030;2024-03-29T05:42:34;98677.75;;;12.47;47.21
46199;BME280;31928;52.104;10.030;2024-03-29T05:45:01;98681.16;;;12.23;48.64
46199;BME280;31928;52.104;10.030;2024-03-29T05:47:27;98687.88;;;12.20;49.07
46199;BME280;31928;52.104;10.030;2024-03-29T05:49:53;98680.34;;;12.17;49.35
46199;BME280;31928;52.104;10.030;2024-03-29T05:52:19;98687.84;;;12.15;49.73
46199;BME280;31928;52.104;10.030;2024-03-29T05:54:46;98692.69;;;12.13;50.03
46199;BME280;31928;52.104;10.030;2024-03-29T05:57:12;98685.69;;;12.12;49.59
46199;BME280;31928;52.104;10.030;2024-03-29T05:59:38;98673.88;;;12.08;50.12
46199;BME280;31928;52.104;10.030;2024-03-29T06:02:04;98678.44;;;12.08;50.28
46199;BME280;31928;52.104;10.030;2024-03-29T06:04:30;98684.06;;;12.06;51.04
46199;BME280;31928;52.104;10.030;2024-03-29T06:06:59;98681.91;;;12.03;50.91
46199;BME280;31928;52.104;10.030;2024-03-29T06:09:25;98686.47;;;12.03;51.00
46199;BME280;31928;52.104;10.030;2024-03-29T06:11:52;98680.28;;;12.02;50.92
46199;BME280;31928;52.104;10.030;2024-03-29T06:14:18;98681.88;;;11.98;51.27
46199;BME280;31928;52.104;10.030;2024-03-29T06:17:02;98665.78;;;11.98;51.34
46199;BME280;31928;52.104;10.030;2024-03-29T06:19:46;98679.19;;;11.98;51.40
46199;BME280;31928;52.104;10.030;2024-03-29T06:22:13;98672.22;;;11.98;51.87
46199;BME280;31928;52.104;10.030;2024-03-29T06:24:39;98667.66;;;11.98;51.71
46199;BME280;31928;52.104;10.030;2024-03-29T06:27:05;98677.56;;;11.98;52.01
46199;BME280;31928;52.104;10.030;2024-03-29T06:29:31;98668.47;;;11.98;51.34
46199;BME280;31928;52.104;10.030;2024-03-29T06:31:57;98656.09;;;11.98;51.86
46199;BME280;31928;52.104;10.030;2024-03-29T06:34:22;98666.03;;;11.97;51.88
46199;BME280;31928;52.104;10.030;2024-03-29T06:36:48;98653.66;;;11.96;52.13
46199;BME280;31928;52.104;10.030;2024-03-29T06:39:13;98648.56;;;11.95;52.67
46199;BME280;31928;52.104;10.030;2024-03-29T06:41:39;98643.47;;;11.93;52.86
46199;BME280;31928;52.104;10.030;2024-03-29T06:44:04;98647.47;;;11.91;52.71
46199;BME280;31928;52.104;10.030;2024-03-29T06:46:30;98642.38;;;11.89;53.34
46199;BME280;31928;52.104;10.030;2024-03-29T06:48:57;98638.34;;;11.87;53.71
46199;BME280;31928;52.104;10.030;2024-03-29T06:51:22;98628.94;;;11.84;53.83
46199;BME280;31928;52.104;10.030;2024-03-29T06:53:48;98618.47;;;11.83;53.93
46199;BME280;31928;52.104;10.030;2024-03-29T06:56:14;98625.44;;;11.79;54.88
46199;BME280;31928;52.104;10.030;2024-03-29T06:58:41;98602.34;;;11.78;56.73
46199;BME280;31928;52.104;10.030;2024-03-29T07:01:06;98597.25;;;11.81;56.48
46199;BME280;31928;52.104;10.030;2024-03-29T07:03:32;98591.38;;;11.89;55.76
46199;BME280;31928;52.104;10.030;2024-03-29T07:05:58;98589.50;;;11.95;54.66
46199;BME280;31928;52.104;10.030;2024-03-29T07:08:23;98598.38;;;12.05;56.02
46199;BME280;31928;52.104;10.030;2024-03-29T07:10:57;98583.63;;;12.12;54.77
46199;BME280;31928;52.104;10.030;2024-03-29T07:13:23;98573.69;;;12.13;54.65
46199;BME280;31928;52.104;10.030;2024-03-29T07:15:52;98573.16;;;12.26;54.62
46199;BME280;31928;52.104;10.030;2024-03-29T07:18:18;98576.13;;;12.24;54.41
46199;BME280;31928;52.104;10.030;2024-03-29T07:20:43;98579.38;;;12.31;55.17
46199;BME280;31928;52.104;10.030;2024-03-29T07:23:09;98582.31;;;12.35;54.47
46199;BME280;31928;52.104;10.030;2024-03-29T07:25:37;98571.84;;;12.38;54.48
46199;BME280;31928;52.104;10.030;2024-03-29T07:28:02;98574.25;;;12.40;53.98
46199;BME280;31928;52.104;10.030;2024-03-29T07:30:28;98572.41;;;12.45;53.42
46199;BME280;31928;52.104;10.030;2024-03-29T07:32:54;98561.13;;;12.48;54.00
46199;BME280;31928;52.104;10.030;2024-03-29T07:35:19;98550.88;;;12.50;54.10
46199;BME280;31928;52.104;10.030;2024-03-29T07:37:45;98550.88;;;12.50;54.04
46199;BME280;31928;52.104;10.030;2024-03-29T07:40:16;98564.06;;;12.47;54.58
46199;BME280;31928;52.104;10.030;2024-03-29T07:42:41;98567.00;;;12.50;54.46
46199;BME280;31928;52.104;10.030;2024-03-29T07:45:07;98570.81;;;12.54;54.87
46199;BME280;31928;52.104;10.030;2024-03-29T07:47:33;98552.50;;;12.51;54.97
46199;BME280;31928;52.104;10.030;2024-03-29T07:49:59;98557.34;;;12.59;54.96
46199;BME280;31928;52.104;10.030;2024-03-29T07:52:24;98546.06;;;12.62;54.25
46199;BME280;31928;52.104;10.030;2024-03-29T07:54:50;98555.72;;;12.63;55.30
46199;BME280;31928;52.104;10.030;2024-03-29T07:57:16;98551.44;;;12.67;55.25
46199;BME280;31928;52.104;10.030;2024-03-29T07:59:42;98539.88;;;12.71;54.77
46199;BME280;31928;52.104;10.030;2024-03-29T08:02:08;98527.75;;;12.74;55.11
46199;BME280;31928;52.104;10.030;2024-03-29T08:04:34;98536.91;;;12.83;54.89
46199;BME280;31928;52.104;10.030;2024-03-29T08:07:00;98536.94;;;12.88;54.37
46199;BME280;31928;52.104;10.030;2024-03-29T08:09:25;98533.94;;;12.94;54.99
46199;BME280;31928;52.104;10.030;2024-03-29T08:11:51;98541.75;;;13.01;54.52
46199;BME280;31928;52.104;10.030;2024-03-29T08:14:17;98529.91;;;13.07;53.85
46199;BME280;31928;52.104;10.030;2024-03-29T08:16:42;98571.31;;;13.11;53.72
46199;BME280;31928;52.104;10.030;2024-03-29T08:19:09;98537.69;;;13.13;53.92
46199;BME280;31928;52.104;10.030;2024-03-29T08:21:34;98539.53;;;13.18;53.57
46199;BME280;31928;52.104;10.030;2024-03-29T08:24:01;98525.00;;;13.23;53.11
46199;BME280;31928;52.104;10.030;2024-03-29T08:26:28;98520.97;;;13.26;53.67
46199;BME280;31928;52.104;10.030;2024-03-29T08:28:56;98537.91;;;13.26;52.90
46199;BME280;31928;52.104;10.030;2024-03-29T08:31:23;98524.44;;;13.31;53.14
46199;BME280;31928;52.104;10.030;2024-03-29T08:33:48;98519.31;;;13.35;52.67
46199;BME280;31928;52.104;10.030;2024-03-29T08:36:14;98536.25;;;13.40;52.61
46199;BME280;31928;52.104;10.030;2024-03-29T08:38:40;98522.50;;;13.42;52.82
46199;BME280;31928;52.104;10.030;2024-03-29T08:41:09;98542.13;;;13.42;52.54
46199;BME280;31928;52.104;10.030;2024-03-29T08:43:34;98540.50;;;13.46;52.56
46199;BME280;31928;52.104;10.030;2024-03-29T08:46:00;98539.16;;;13.49;52.57
46199;BME280;31928;52.104;10.030;2024-03-29T08:48:30;98534.56;;;13.54;52.01
46199;BME280;31928;52.104;10.030;2024-03-29T08:50:55;98536.16;;;13.55;52.90
46199;BME280;31928;52.104;10.030;2024-03-29T08:53:21;98566.84;;;13.59;53.19
46199;BME280;31928;52.104;10.030;2024-03-29T08:55:47;98553.63;;;13.63;52.49
46199;BME280;31928;52.104;10.030;2024-03-29T08:58:16;98565.47;;;13.67;52.48
46199;BME280;31928;52.104;10.030;2024-03-29T09:00:56;98562.75;;;13.72;52.67
46199;BME280;31928;52.104;10.030;2024-03-29T09:03:24;98570.53;;;13.73;52.39
46199;BME280;31928;52.104;10.030;2024-03-29T09:05:50;98572.97;;;13.75;52.60
46199;BME280;31928;52.104;10.030;2024-03-29T09:08:19;98578.06;;;13.81;52.35
46199;BME280;31928;52.104;10.030;2024-03-29T09:10:45;98587.75;;;13.77;52.58
46199;BME280;31928;52.104;10.030;2024-03-29T09:13:11;98572.41;;;13.82;52.44
46199;BME280;31928;52.104;10.030;2024-03-29T09:15:37;98573.19;;;13.83;52.22
46199;BME280;31928;52.104;10.030;2024-03-29T09:18:03;98568.34;;;13.85;53.22
46199;BME280;31928;52.104;10.030;2024-03-29T09:20:39;98566.75;;;13.84;52.61
46199;BME280;31928;52.104;10.030;2024-03-29T09:23:04;98562.97;;;13.85;53.32
46199;BME280;31928;52.104;10.030;2024-03-29T09:25:30;98572.09;;;13.89;52.48
46199;BME280;31928;52.104;10.030;2024-03-29T09:27:57;98577.22;;;13.90;53.22
46199;BME280;31928;52.104;10.030;2024-03-29T09:30:23;98553.47;;;13.92;52.75
46199;BME280;31928;52.104;10.030;2024-03-29T09:32:48;98547.84;;;13.94;52.97
46199;BME280;31928;52.104;10.030;2024-03-29T09:35:17;98541.34;;;13.95;53.02
46199;BME280;31928;52.104;10.030;2024-03-29T09:37:43;98558.84;;;13.97;53.29
46199;BME280;31928;52.104;10.030;2024-03-29T09:40:10;98539.66;;;14.04;52.81
46199;BME280;31928;52.104;10.030;2024-03-29T09:42:38;98537.53;;;14.06;53.12
46199;BME280;31928;52.104;10.030;2024-03-29T09:45:05;98526.75;;;14.06;53.16
46199;BME280;31928;52.104;10.030;2024-03-29T09:47:31;98529.44;;;14.11;53.39
46199;BME280;31928;52.104;10.030;2024-03-29T09:49:57;98527.59;;;14.40;51.57
46199;BME280;31928;52.104;10.030;2024-03-29T09:52:25;98533.66;;;14.22;53.26
46199;BME280;31928;52.104;10.030;2024-03-29T09:54:51;98566.53;;;14.24;53.04
46199;BME280;31928;52.104;10.030;2024-03-29T09:57:17;98551.41;;;14.28;52.86
46199;BME280;31928;52.104;10.030;2024-03-29T09:59:42;98540.31;;;14.34;52.72
46199;BME280;31928;52.104;10.030;2024-03-29T10:02:15;98533.53;;;14.42;52.65
46199;BME280;31928;52.104;10.030;2024-03-29T10:04:46;98534.03;;;14.43;52.91
46199;BME280;31928;52.104;10.030;2024-03-29T10:07:14;98550.22;;;14.43;52.80
46199;BME280;31928;52.104;10.030;2024-03-29T10:09:45;98544.50;;;14.50;52.79
46199;BME280;31928;52.104;10.030;2024-03-29T10:12:10;98553.44;;;14.45;53.20
46199;BME280;31928;52.104;10.030;2024-03-29T10:14:46;98559.81;;;14.59;52.54
46199;BME280;31928;52.104;10.030;2024-03-29T10:17:20;98539.06;;;14.55;53.20
46199;BME280;31928;52.104;10.030;2024-03-29T10:19:46;98564.63;;;14.62;52.97
46199;BME280;31928;52.104;10.030;2024-03-29T10:22:13;98566.75;;;14.65;52.79
46199;BME280;31928;52.104;10.030;2024-03-29T10:24:38;98554.31;;;14.69;53.00
46199;BME280;31928;52.104;10.030;2024-03-29T10:27:04;98545.09;;;14.75;53.37
46199;BME280;31928;52.104;10.030;2024-03-29T10:29:31;98542.84;;;14.82;53.02
46199;BME280;31928;52.104;10.030;2024-03-29T10:31:57;98567.63;;;14.89;52.59
46199;BME280;31928;52.104;10.030;2024-03-29T10:34:24;98570.78;;;14.96;52.99
46199;BME280;31928;52.104;10.030;2024-03-29T10:36:50;98556.75;;;14.99;52.84
46199;BME280;31928;52.104;10.030;2024-03-29T10:39:16;98551.22;;;15.09;52.62
46199;BME280;31928;52.104;10.030;2024-03-29T10:41:46;98569.00;;;15.15;52.97
46199;BME280;31928;52.104;10.030;2024-03-29T10:44:13;98550.06;;;15.20;52.69
46199;BME280;31928;52.104;10.030;2024-03-29T10:46:40;98558.13;;;15.25;52.53
46199;BME280;31928;52.104;10.030;2024-03-29T10:49:08;98536.97;;;15.32;52.52
46199;BME280;31928;52.104;10.030;2024-03-29T10:51:39;98562.03;;;15.37;52.16
46199;BME280;31928;52.104;10.030;2024-03-29T10:54:05;98562.16;;;15.51;52.07
46199;BME280;31928;52.104;10.030;2024-03-29T10:56:34;98548.00;;;15.59;52.74
46199;BME280;31928;52.104;10.030;2024-03-29T10:59:06;98576.50;;;15.69;52.10
46199;BME280;31928;52.104;10.030;2024-03-29T11:01:39;98559.13;;;15.75;51.88
46199;BME280;31928;52.104;10.030;2024-03-29T11:04:13;98567.41;;;15.84;51.48
46199;BME280;31928;52.104;10.030;2024-03-29T11:06:43;98562.00;;;15.84;51.86
46199;BME280;31928;52.104;10.030;2024-03-29T11:09:13;98574.03;;;15.91;51.67
46199;BME280;31928;52.104;10.030;2024-03-29T11:11:42;98554.56;;;15.94;51.70
46199;BME280;31928;52.104;10.030;2024-03-29T11:14:14;98586.94;;;15.99;51.59
46199;BME280;31928;52.104;10.030;2024-03-29T11:16:41;98595.53;;;16.01;51.27
46199;BME280;31928;52.104;10.030;2024-03-29T11:19:12;98573.78;;;16.11;51.43
46199;BME280;31928;52.104;10.030;2024-03-29T11:21:40;98578.31;;;16.16;51.09
46199;BME280;31928;52.104;10.030;2024-03-29T11:24:08;98588.75;;;16.22;51.34
46199;BME280;31928;52.104;10.030;2024-03-29T11:26:34;98589.75;;;16.49;50.89
46199;BME280;31928;52.104;10.030;2024-03-29T11:29:00;98616.34;;;16.42;50.53
46199;BME280;31928;52.104;10.030;2024-03-29T11:31:27;98606.06;;;16.44;50.37
46199;BME280;31928;52.104;10.030;2024-03-29T11:33:53;98597.06;;;16.49;50.28
46199;BME280;31928;52.104;10.030;2024-03-29T11:36:28;98610.81;;;16.52;50.10
46199;BME280;31928;52.104;10.030;2024-03-29T11:38:56;98579.28;;;16.61;49.56
46199;BME280;31928;52.104;10.030;2024-03-29T11:41:26;98581.63;;;16.68;50.33
46199;BME280;31928;52.104;10.030;2024-03-29T11:43:53;98589.59;;;16.78;50.24
46199;BME280;31928;52.104;10.030;2024-03-29T11:46:20;98590.22;;;16.88;50.02
46199;BME280;31928;52.104;10.030;2024-03-29T11:48:46;98601.69;;;16.98;49.49
46199;BME280;31928;52.104;10.030;2024-03-29T11:51:16;98577.63;;;17.10;48.89
46199;BME280;31928;52.104;10.030;2024-03-29T11:53:44;98575.34;;;17.17;49.04
46199;BME280;31928;52.104;10.030;2024-03-29T11:56:10;98594.22;;;17.22;48.65
46199;BME280;31928;52.104;10.030;2024-03-29T11:58:39;98585.44;;;17.30;48.26
46199;BME280;31928;52.104;10.030;2024-03-29T12:01:05;98574.69;;;17.39;48.85
46199;BME280;31928;52.104;10.030;2024-03-29T12:03:32;98586.75;;;17.46;48.37
46199;BME280;31928;52.104;10.030;2024-03-29T12:05:58;98582.94;;;17.74;48.83
46199;BME280;31928;52.104;10.030;2024-03-29T12:08:28;98573.50;;;17.58;47.71
46199;BME280;31928;52.104;10.030;2024-03-29T12:10:54;98576.50;;;17.56;48.11
46199;BME280;31928;52.104;10.030;2024-03-29T12:13:19;98581.63;;;17.58;48.08
46199;BME280;31928;52.104;10.030;2024-03-29T12:15:45;98571.41;;;17.55;47.79
46199;BME280;31928;52.104;10.030;2024-03-29T12:18:11;98592.59;;;17.53;47.55
46199;BME280;31928;52.104;10.030;2024-03-29T12:20:38;98576.91;;;17.50;47.38
46199;BME280;31928;52.104;10.030;2024-03-29T12:23:09;98583.63;;;17.52;48.06
46199;BME280;31928;52.104;10.030;2024-03-29T12:25:39;98594.56;;;17.47;47.98
46199;BME280;31928;52.104;10.030;2024-03-29T12:28:05;98582.16;;;17.47;47.89
46199;BME280;31928;52.104;10.030;2024-03-29T12:30:31;98568.88;;;17.45;48.48
46199;BME280;31928;52.104;10.030;2024-03-29T12:33:04;98569.31;;;17.52;48.13
46199;BME280;31928;52.104;10.030;2024-03-29T12:35:32;98565.69;;;17.43;48.54
46199;BME280;31928;52.104;10.030;2024-03-29T12:38:03;98570.00;;;17.44;48.33
46199;BME280;31928;52.104;10.030;2024-03-29T12:40:30;98565.69;;;17.43;48.48
46199;BME280;31928;52.104;10.030;2024-03-29T12:43:02;98574.28;;;17.45;47.85
46199;BME280;31928;52.104;10.030;2024-03-29T12:45:28;98573.19;;;17.46;48.31
46199;BME280;31928;52.104;10.030;2024-03-29T12:47:54;98587.97;;;17.53;48.32